Time;durP1;ratioP1;P1;durP2;ratioP2;P2;SDS_P1;SDS_P2;PMS_P1;PMS_P2;Temp;Humidity;BMP_temperature;BMP_pressure;BME280_temperature;BME280_humidity;BME280_pressure;Samples;Min_cycle;Max_cycle;Signal;HPM_P1;HPM_P2
2022/12/07 00:01:27;;;;;;;60.80;35.83;;;;;;;8.36;91.67;99652.28;5050281;28;20666;-53
2022/12/07 00:04:04;;;;;;;56.80;35.17;;;;;;;8.37;91.22;99647.22;5050739;28;20184;-53
2022/12/07 00:06:31;;;;;;;56.30;33.93;;;;;;;8.32;90.86;99655.59;5047362;28;20216;-53
2022/12/07 00:08:59;;;;;;;58.57;32.83;;;;;;;8.29;91.26;99664.06;5052631;28;20190;-53
2022/12/07 00:11:27;;;;;;;50.63;32.73;;;;;;;8.24;90.91;99658.75;5049881;28;20198;-54
2022/12/07 00:13:55;;;;;;;48.53;30.77;;;;;;;8.23;90.74;99657.03;5054128;28;20571;-54
2022/12/07 00:16:24;;;;;;;53.73;29.67;;;;;;;8.22;90.42;99660.41;5054276;28;20246;-54
2022/12/07 00:18:53;;;;;;;49.30;29.20;;;;;;;8.17;90.75;99658.53;5047371;28;20258;-54
2022/12/07 00:21:23;;;;;;;46.77;29.17;;;;;;;8.04;90.80;99633.44;5045606;28;20282;-54
2022/12/07 00:23:52;;;;;;;45.67;29.03;;;;;;;8.18;90.55;99652.59;5039451;28;20195;-54
2022/12/07 00:26:21;;;;;;;49.23;29.93;;;;;;;8.19;90.51;99660.31;5053311;28;20209;-54
2022/12/07 00:28:50;;;;;;;55.10;29.80;;;;;;;7.99;90.55;99625.66;5053560;28;20192;-54
2022/12/07 00:31:19;;;;;;;44.77;29.10;;;;;;;8.18;90.25;99652.59;5046584;28;20192;-53
2022/12/07 00:33:46;;;;;;;45.03;29.30;;;;;;;8.12;90.21;99650.75;5036453;28;20224;-54
2022/12/07 00:36:16;;;;;;;50.70;29.77;;;;;;;8.13;90.25;99662.69;5034381;28;20200;-53
2022/12/07 00:38:44;;;;;;;43.70;29.10;;;;;;;8.11;90.49;99663.47;5038086;28;20207;-53
2022/12/07 00:41:13;;;;;;;44.57;28.93;;;;;;;8.12;90.34;99655.00;5039797;28;20207;-53
2022/12/07 00:43:42;;;;;;;49.05;33.33;;;;;;;8.07;90.61;99633.53;5042164;28;20441;-53
2022/12/07 00:46:09;;;;;;;46.20;29.33;;;;;;;8.20;90.38;99653.50;5033652;28;20193;-53
2022/12/07 00:48:36;;;;;;;41.53;27.67;;;;;;;8.17;90.62;99656.84;5039404;28;20211;-53
2022/12/07 00:51:03;;;;;;;47.07;29.23;;;;;;;8.19;90.32;99649.22;5053142;28;20258;-54
2022/12/07 00:53:30;;;;;;;50.37;27.67;;;;;;;8.18;90.16;99652.59;5053275;28;20277;-53
2022/12/07 00:55:59;;;;;;;38.33;25.77;;;;;;;8.09;90.01;99654.91;5053152;28;20681;-53
2022/12/07 00:58:25;;;;;;;44.73;26.10;;;;;;;8.09;89.44;99652.34;5053154;28;20195;-53
2022/12/07 01:00:52;;;;;;;42.70;24.43;;;;;;;8.04;89.45;99654.78;5052989;28;20690;-54
2022/12/07 01:03:19;;;;;;;40.40;25.77;;;;;;;7.98;89.82;99649.47;5053250;28;20707;-53
2022/12/07 01:05:53;;;;;;;40.03;26.10;;;;;;;7.95;89.98;99648.53;5033809;28;20207;-53
2022/12/07 01:08:20;;;;;;;41.90;26.07;;;;;;;7.95;89.99;99643.41;5033656;28;20195;-53
2022/12/07 01:10:48;;;;;;;42.63;25.57;;;;;;;7.99;89.92;99643.56;5033079;28;20200;-53
2022/12/07 01:13:16;;;;;;;38.03;24.13;;;;;;;7.99;89.61;99638.44;5033113;28;20690;-53
2022/12/07 01:15:45;;;;;;;36.33;23.20;;;;;;;8.03;89.72;99647.91;5032875;28;20193;-53
2022/12/07 01:18:12;;;;;;;35.47;23.50;;;;;;;8.07;89.75;99639.53;5039147;28;20661;-53
2022/12/07 01:20:39;;;;;;;40.67;24.57;;;;;;;8.11;89.14;99640.44;5036004;28;20678;-53
2022/12/07 01:23:06;;;;;;;43.87;24.63;;;;;;;8.07;89.08;99633.53;5039851;28;20198;-53
2022/12/07 01:25:33;;;;;;;38.27;24.03;;;;;;;8.05;89.11;99640.28;5072198;28;20184;-53
2022/12/07 01:27:59;;;;;;;37.17;22.87;;;;;;;8.00;88.91;99637.59;5071279;28;20202;-53
2022/12/07 01:30:27;;;;;;;34.93;21.90;;;;;;;7.99;88.90;99630.75;5061190;28;20199;-53
2022/12/07 01:32:55;;;;;;;38.40;22.97;;;;;;;7.99;88.98;99635.88;5052449;28;20257;-52
2022/12/07 01:35:22;;;;;;;42.60;22.57;;;;;;;7.99;88.85;99635.00;5052507;28;20197;-54
2022/12/07 01:37:53;;;;;;;37.47;24.10;;;;;;;7.99;88.64;99622.22;5052537;28;20204;-53
2022/12/07 01:40:20;;;;;;;40.73;24.13;;;;;;;7.97;88.98;99618.72;5052769;28;20192;-53
2022/12/07 01:42:47;;;;;;;39.03;24.97;;;;;;;7.94;89.19;99616.94;5052494;28;20199;-54
2022/12/07 01:45:40;;;;;;;38.63;22.30;;;;;;;7.91;89.57;99609.19;5053259;28;20196;-53
2022/12/07 01:48:09;;;;;;;44.80;23.57;;;;;;;7.87;89.74;99607.38;5042709;28;20283;-53
2022/12/07 01:50:37;;;;;;;38.13;22.80;;;;;;;7.82;89.77;99606.38;5052249;28;20192;-53
2022/12/07 01:53:12;;;;;;;37.47;23.90;;;;;;;7.79;89.68;99608.84;5052191;28;20235;-53
2022/12/07 01:55:42;;;;;;;37.87;23.17;;;;;;;7.76;89.55;99605.31;5052433;28;20194;-53
2022/12/07 01:58:11;;;;;;;32.97;21.97;;;;;;;7.64;89.66;99595.59;5052537;28;20194;-53
2022/12/07 02:00:40;;;;;;;46.58;25.95;;;;;;;7.73;89.70;99609.53;5052005;28;20462;-53
2022/12/07 02:03:12;;;;;;;34.27;22.00;;;;;;;7.77;89.85;99610.50;5052157;28;20195;-53
2022/12/07 02:05:41;;;;;;;33.70;21.50;;;;;;;7.78;89.75;99614.78;5052514;28;20193;-53
2022/12/07 02:08:08;;;;;;;37.67;22.93;;;;;;;7.76;89.87;99606.19;5049283;28;20196;-54
2022/12/07 02:10:35;;;;;;;39.23;23.43;;;;;;;7.78;90.07;99607.09;5032515;28;20193;-53
2022/12/07 02:13:06;;;;;;;35.97;22.73;;;;;;;7.76;90.15;99607.88;5032037;28;20228;-54
2022/12/07 02:15:46;;;;;;;39.97;22.73;;;;;;;7.77;90.16;99607.06;5032226;28;20189;-53
2022/12/07 02:18:21;;;;;;;37.67;23.27;;;;;;;7.80;90.03;99604.59;5032287;28;20195;-56
2022/12/07 02:20:57;;;;;;;36.93;24.23;;;;;;;7.75;89.99;99595.94;5032011;28;20192;-53
2022/12/07 02:24:04;;;;;;;41.57;23.83;;;;;;;7.79;89.77;99592.63;5032066;28;20196;-53
2022/12/07 02:27:01;;;;;;;35.07;22.77;;;;;;;7.75;89.53;99590.81;5031968;28;20192;-54
2022/12/07 02:29:34;;;;;;;33.07;22.00;;;;;;;7.77;89.45;99584.94;5032295;28;20188;-54
2022/12/07 02:32:08;;;;;;;33.20;22.30;;;;;;;7.76;89.29;99578.06;5031921;28;20251;-53
2022/12/07 02:34:44;;;;;;;32.70;22.27;;;;;;;7.81;89.13;99583.31;5032332;28;20243;-53
2022/12/07 02:37:20;;;;;;;33.33;21.10;;;;;;;7.72;89.02;99569.44;5032093;28;20188;-53
2022/12/07 02:39:52;;;;;;;38.23;20.93;;;;;;;7.70;89.71;99578.75;5044574;28;20253;-54
2022/12/07 02:42:25;;;;;;;38.10;22.07;;;;;;;7.67;89.61;99578.66;5051921;28;20200;-53
2022/12/07 02:44:55;;;;;;;33.07;21.33;;;;;;;7.66;89.66;99581.19;5052036;28;20211;-53
2022/12/07 02:47:24;;;;;;;36.10;20.90;;;;;;;7.65;90.17;99582.88;5051921;28;20193;-53
2022/12/07 02:49:52;;;;;;;36.67;20.13;;;;;;;7.58;90.19;99582.66;5051758;28;20194;-53
2022/12/07 02:52:19;;;;;;;41.10;20.03;;;;;;;7.62;90.01;99584.47;5051705;28;20230;-53
2022/12/07 02:54:45;;;;;;;30.93;20.30;;;;;;;7.59;89.50;99569.91;5051743;28;20666;-54
2022/12/07 02:57:31;;;;;;;39.57;21.53;;;;;;;7.60;89.79;99573.34;5051735;28;20199;-52
2022/12/07 03:00:05;;;;;;;30.53;19.63;;;;;;;7.60;89.47;99564.00;5051870;28;20196;-52
2022/12/07 03:02:40;;;;;;;34.90;23.17;;;;;;;7.61;89.49;99555.47;5053653;28;20440;-53
2022/12/07 03:05:23;;;;;;;35.30;20.50;;;;;;;7.66;89.19;99564.13;5055545;28;20198;-53
2022/12/07 03:07:59;;;;;;;30.27;19.20;;;;;;;7.70;89.32;99560.00;5055613;28;20195;-52
2022/12/07 03:10:33;;;;;;;36.03;18.63;;;;;;;7.67;89.18;99559.91;5055525;28;20184;-53
2022/12/07 03:13:10;;;;;;;29.20;18.93;;;;;;;7.64;89.12;99563.22;5055838;28;20222;-53
2022/12/07 03:15:43;;;;;;;28.27;18.77;;;;;;;7.70;88.73;99565.97;5056063;28;20207;-53
2022/12/07 03:18:12;;;;;;;36.60;18.30;;;;;;;7.69;88.70;99569.34;5055641;28;20192;-53
2022/12/07 03:20:42;;;;;;;29.93;18.53;;;;;;;7.71;88.77;99571.97;5055196;28;20198;-53
2022/12/07 03:23:11;;;;;;;29.27;18.60;;;;;;;7.71;88.20;99572.84;5055093;28;20195;-53
2022/12/07 03:25:43;;;;;;;29.53;17.77;;;;;;;7.73;87.85;99581.41;5054929;28;20195;-53
2022/12/07 03:28:13;;;;;;;30.80;17.83;;;;;;;7.76;87.86;99582.31;5054918;28;20657;-53
2022/12/07 03:30:48;;;;;;;32.20;18.60;;;;;;;7.64;87.91;99545.34;5055263;28;20195;-53
2022/12/07 03:33:22;;;;;;;28.30;18.20;;;;;;;7.79;87.97;99572.16;5054943;28;20226;-53
2022/12/07 03:35:53;;;;;;;26.90;17.97;;;;;;;7.72;87.70;99546.41;5054940;28;20195;-53
2022/12/07 03:38:24;;;;;;;33.67;17.80;;;;;;;7.83;88.12;99568.88;5055537;28;20218;-53
2022/12/07 03:40:58;;;;;;;27.77;19.40;;;;;;;7.80;88.41;99571.34;5055118;28;20188;-53
2022/12/07 03:43:26;;;;;;;30.30;18.57;;;;;;;7.76;89.08;99570.41;5054776;28;20191;-53
2022/12/07 03:46:01;;;;;;;42.47;20.90;;;;;;;7.75;89.04;99572.94;5054732;28;20188;-53
2022/12/07 03:48:36;;;;;;;34.60;18.77;;;;;;;7.73;89.34;99570.31;5054736;28;20191;-53
2022/12/07 03:51:12;;;;;;;30.87;18.17;;;;;;;7.63;88.94;99547.88;5054298;28;20191;-54
2022/12/07 03:53:45;;;;;;;33.27;18.37;;;;;;;7.79;88.26;99573.03;5054304;28;20223;-53
2022/12/07 03:56:13;;;;;;;36.00;17.77;;;;;;;7.68;87.95;99542.06;5054725;28;20188;-53
2022/12/07 03:58:42;;;;;;;32.13;18.17;;;;;;;7.78;87.83;99560.19;5054432;28;20674;-54
2022/12/07 04:01:11;;;;;;;28.33;16.70;;;;;;;7.79;87.38;99560.25;5054599;28;20188;-53
2022/12/07 04:03:38;;;;;;;25.97;16.17;;;;;;;7.77;87.68;99561.03;5054161;28;20724;-53
2022/12/07 04:06:05;;;;;;;25.77;15.30;;;;;;;7.76;87.25;99557.59;5054268;28;20282;-53
2022/12/07 04:08:32;;;;;;;23.57;15.03;;;;;;;7.73;86.65;99560.06;5054120;28;20212;-53
2022/12/07 04:10:58;;;;;;;21.23;13.77;;;;;;;7.71;86.41;99564.28;5060047;28;20203;-53
2022/12/07 04:13:25;;;;;;;22.33;13.07;;;;;;;7.69;86.08;99560.84;5074025;28;20221;-53
2022/12/07 04:15:52;;;;;;;22.13;12.87;;;;;;;7.63;86.15;99558.97;5073947;28;20675;-53
2022/12/07 04:18:20;;;;;;;19.27;12.23;;;;;;;7.51;85.77;99542.38;5074882;28;20265;-53
2022/12/07 04:20:47;;;;;;;18.87;10.97;;;;;;;7.56;85.85;99561.28;5074273;28;20228;-53
2022/12/07 04:23:14;;;;;;;15.93;11.50;;;;;;;7.52;85.59;99550.13;5074133;28;20194;-54
2022/12/07 04:25:41;;;;;;;17.20;11.77;;;;;;;7.47;85.70;99553.38;5074413;28;20191;-53
2022/12/07 04:28:08;;;;;;;17.73;10.97;;;;;;;7.45;85.42;99553.31;5073907;28;20199;-53
2022/12/07 04:30:35;;;;;;;17.07;11.40;;;;;;;7.38;85.33;99546.28;5073619;28;20194;-53
2022/12/07 04:33:01;;;;;;;20.03;10.53;;;;;;;7.36;85.71;99554.72;5074264;28;20590;-53
2022/12/07 04:35:30;;;;;;;20.70;11.83;;;;;;;7.34;85.43;99553.78;5073637;28;20192;-53
2022/12/07 04:37:56;;;;;;;20.97;12.53;;;;;;;7.32;85.45;99551.22;5073705;28;20194;-52
2022/12/07 04:40:23;;;;;;;16.90;12.20;;;;;;;7.33;85.75;99550.41;5073684;28;20187;-53
2022/12/07 04:42:50;;;;;;;15.23;11.80;;;;;;;7.33;85.30;99552.09;5073665;28;20661;-52
2022/12/07 04:45:17;;;;;;;20.87;11.37;;;;;;;7.31;85.24;99554.56;5073372;28;20665;-53
2022/12/07 04:47:44;;;;;;;21.43;12.93;;;;;;;7.32;84.97;99556.31;5073638;28;20195;-53
2022/12/07 04:50:11;;;;;;;17.50;12.30;;;;;;;7.26;85.03;99550.16;5073423;28;20202;-53
2022/12/07 04:52:39;;;;;;;18.87;11.77;;;;;;;7.20;85.63;99550.00;5073444;28;20279;-53
2022/12/07 04:55:06;;;;;;;17.83;11.80;;;;;;;7.18;86.27;99552.47;5073079;28;20190;-53
2022/12/07 04:57:33;;;;;;;26.47;12.93;;;;;;;7.16;86.14;99551.56;5071536;28;20236;-53
2022/12/07 05:00:00;;;;;;;20.47;12.37;;;;;;;7.09;87.21;99550.50;5065123;28;20203;-53
2022/12/07 05:02:26;;;;;;;17.63;12.30;;;;;;;7.07;87.42;99556.38;5070098;28;20203;-53
2022/12/07 05:04:53;;;;;;;26.47;15.37;;;;;;;7.00;87.75;99555.31;5072932;28;20654;-53
2022/12/07 05:07:20;;;;;;;24.77;16.43;;;;;;;7.03;87.26;99568.19;5071530;28;20191;-54
2022/12/07 05:09:48;;;;;;;37.93;22.60;;;;;;;6.65;87.17;99493.78;5073012;28;20578;-53
2022/12/07 05:12:15;;;;;;;33.57;20.63;;;;;;;7.11;87.27;99565.91;5068539;28;20203;-54
2022/12/07 05:14:42;;;;;;;34.40;19.63;;;;;;;7.08;87.17;99565.81;5072902;28;20219;-54
2022/12/07 05:17:09;;;;;;;37.00;23.43;;;;;;;6.97;87.37;99562.03;5059523;28;20277;-54
2022/12/07 05:19:35;;;;;;;39.13;22.97;;;;;;;6.99;87.78;99562.94;5052791;28;20261;-54
2022/12/07 05:22:03;;;;;;;41.50;26.30;;;;;;;6.97;88.28;99552.69;5052907;28;20192;-54
2022/12/07 05:24:29;;;;;;;38.13;22.70;;;;;;;6.97;88.38;99564.59;5052118;28;20222;-54
2022/12/07 05:26:58;;;;;;;44.63;26.60;;;;;;;6.77;89.14;99540.09;5052121;28;20593;-54
2022/12/07 05:29:24;;;;;;;50.67;28.23;;;;;;;6.88;89.71;99567.72;5052361;28;20203;-54
2022/12/07 05:31:51;;;;;;;54.87;30.50;;;;;;;6.81;89.96;99564.94;5052294;28;20188;-54
2022/12/07 05:34:18;;;;;;;52.37;31.63;;;;;;;6.71;91.10;99552.66;5052843;28;20587;-54
2022/12/07 05:36:45;;;;;;;53.17;30.13;;;;;;;6.85;92.30;99576.97;5052376;28;20192;-54
2022/12/07 05:39:12;;;;;;;38.47;25.37;;;;;;;6.89;91.93;99573.72;5052270;28;20191;-53
2022/12/07 05:44:24;;;;;;;45.80;26.93;;;;;;;6.95;91.81;99568.81;5052498;28;20202;-53
2022/12/07 05:46:51;;;;;;;43.93;27.30;;;;;;;7.00;92.18;99562.97;5052358;28;20191;-53
2022/12/07 05:49:18;;;;;;;47.63;28.00;;;;;;;7.03;91.69;99563.09;5052236;28;20192;-53
2022/12/07 05:51:44;;;;;;;53.83;28.97;;;;;;;7.03;91.78;99562.25;5052062;28;20224;-53
2022/12/07 05:54:11;;;;;;;50.72;28.58;;;;;;;7.02;92.65;99568.16;5052094;28;20450;-53
2022/12/07 05:56:38;;;;;;;44.77;27.23;;;;;;;7.08;92.42;99555.59;5051777;28;20531;-53
2022/12/07 06:01:57;;;;;;;44.37;25.73;;;;;;;7.16;92.27;99573.69;5041459;28;20226;-53
2022/12/07 06:04:26;;;;;;;37.00;24.73;;;;;;;7.19;91.56;99584.88;5052032;28;20191;-54
2022/12/07 06:06:53;;;;;;;32.10;20.83;;;;;;;7.24;91.41;99573.13;5052087;28;20191;-53
2022/12/07 06:09:21;;;;;;;40.70;23.77;;;;;;;7.29;91.03;99573.25;5052668;28;20192;-53
2022/12/07 06:14:32;;;;;;;45.30;25.80;;;;;;;7.30;90.67;99572.44;5052058;28;20219;-54
2022/12/07 06:17:00;;;;;;;46.03;26.50;;;;;;;7.32;90.59;99579.31;5051950;28;20559;-53
2022/12/07 06:19:27;;;;;;;48.60;29.13;;;;;;;7.30;90.32;99583.53;5051887;28;20618;-53
2022/12/07 06:21:55;;;;;;;42.13;27.97;;;;;;;7.25;90.72;99572.28;5052212;28;20195;-53
2022/12/07 06:24:22;;;;;;;42.53;27.10;;;;;;;7.32;90.33;99571.66;5052719;28;20580;-54
2022/12/07 06:26:49;;;;;;;52.30;31.07;;;;;;;7.28;90.48;99562.16;5071970;28;20570;-54
2022/12/07 06:29:17;;;;;;;53.03;29.63;;;;;;;7.44;90.21;99586.50;5071766;28;20546;-54
2022/12/07 06:31:44;;;;;;;46.87;28.20;;;;;;;7.49;89.57;99585.81;5071400;28;20209;-54
2022/12/07 06:34:15;;;;;;;39.63;25.70;;;;;;;7.53;89.43;99582.50;5071644;28;20231;-54
2022/12/07 06:36:42;;;;;;;34.10;22.97;;;;;;;7.52;89.13;99579.91;5073427;28;20531;-54
2022/12/07 06:39:09;;;;;;;37.33;23.37;;;;;;;7.41;88.50;99555.72;5075706;28;20199;-53
2022/12/07 06:41:37;;;;;;;36.20;23.43;;;;;;;7.59;88.08;99582.69;5075670;28;20202;-54
2022/12/07 06:44:04;;;;;;;44.10;25.93;;;;;;;7.36;87.94;99537.69;5075439;28;20264;-53
2022/12/07 06:46:31;;;;;;;41.03;23.70;;;;;;;7.66;87.84;99594.81;5075252;28;20205;-53
2022/12/07 06:48:58;;;;;;;34.40;23.83;;;;;;;7.70;87.78;99589.00;5075739;28;20274;-53
2022/12/07 06:51:26;;;;;;;33.43;21.90;;;;;;;7.77;87.48;99578.94;5075745;28;20264;-54
2022/12/07 06:53:53;;;;;;;31.90;20.67;;;;;;;7.83;87.36;99577.41;5075675;28;20230;-54
2022/12/07 06:56:20;;;;;;;32.17;21.63;;;;;;;7.92;87.29;99589.59;5075269;28;20696;-54
2022/12/07 06:58:46;;;;;;;29.43;19.50;;;;;;;7.99;86.70;99583.84;5075294;28;20210;-54
2022/12/07 07:01:15;;;;;;;40.07;21.73;;;;;;;7.97;86.04;99565.88;5075073;28;20731;-54
2022/12/07 07:03:42;;;;;;;33.13;20.13;;;;;;;7.98;85.45;99562.50;5075073;28;20208;-54
2022/12/07 07:06:09;;;;;;;38.37;20.53;;;;;;;8.02;85.29;99568.56;5075227;28;20192;-54
2022/12/07 07:08:39;;;;;;;34.07;21.03;;;;;;;8.12;85.33;99558.63;5075137;28;20191;-54
2022/12/07 07:11:06;;;;;;;33.93;20.80;;;;;;;8.22;85.44;99567.41;5075227;28;20188;-54
2022/12/07 07:13:33;;;;;;;38.03;23.87;;;;;;;8.27;85.35;99576.97;5055324;28;20540;-54
2022/12/07 07:16:00;;;;;;;34.63;21.87;;;;;;;8.19;85.38;99570.75;5054697;28;20198;-54
2022/12/07 07:18:27;;;;;;;37.83;22.47;;;;;;;8.31;85.41;99585.59;5055063;28;20188;-54
2022/12/07 07:20:54;;;;;;;35.20;23.17;;;;;;;8.35;85.28;99584.00;5038514;28;20204;-54
2022/12/07 07:23:22;;;;;;;33.77;23.03;;;;;;;8.44;85.61;99581.66;5043199;28;20293;-54
2022/12/07 07:25:50;;;;;;;36.87;22.93;;;;;;;8.54;84.91;99583.66;5054370;28;20200;-53
2022/12/07 07:28:17;;;;;;;41.13;26.20;;;;;;;8.66;84.47;99577.13;5055000;28;20188;-55
2022/12/07 07:30:44;;;;;;;38.20;23.13;;;;;;;8.73;84.27;99584.16;5055099;28;20203;-54
2022/12/07 07:33:11;;;;;;;40.87;24.07;;;;;;;8.68;83.54;99560.09;5055039;28;20199;-54
2022/12/07 07:35:39;;;;;;;38.03;24.53;;;;;;;8.88;83.56;99570.81;5054758;28;20653;-54
2022/12/07 07:38:06;;;;;;;39.10;23.00;;;;;;;8.90;83.50;99575.16;5054717;28;20231;-54
2022/12/07 07:40:33;;;;;;;37.83;23.67;;;;;;;8.90;83.14;99580.28;5054320;28;20193;-54
2022/12/07 07:43:01;;;;;;;36.23;21.73;;;;;;;8.95;82.97;99584.66;5053323;28;20200;-58
2022/12/07 07:45:29;;;;;;;35.90;21.43;;;;;;;8.95;82.59;99597.47;5074373;28;20207;-54
2022/12/07 07:47:56;;;;;;;29.67;20.50;;;;;;;9.00;82.59;99593.31;5074056;28;20183;-54
2022/12/07 07:50:23;;;;;;;30.70;21.30;;;;;;;9.02;81.95;99596.78;5074525;28;20193;-54
2022/12/07 07:52:50;;;;;;;35.43;21.93;;;;;;;9.01;81.96;99592.50;5074853;28;20230;-54
2022/12/07 07:55:17;;;;;;;40.63;28.60;;;;;;;9.12;82.44;99603.88;5074317;28;20218;-54
2022/12/07 07:57:44;;;;;;;47.20;28.43;;;;;;;9.09;83.35;99598.69;5073920;28;20202;-54
2022/12/07 08:00:15;;;;;;;48.97;29.30;;;;;;;9.16;83.53;99595.41;5073661;28;20191;-54
2022/12/07 08:02:43;;;;;;;51.70;29.07;;;;;;;9.19;83.56;99596.34;5072102;28;20183;-55
2022/12/07 08:05:11;;;;;;;44.70;26.43;;;;;;;9.27;83.30;99593.97;5044747;28;20232;-54
2022/12/07 08:07:38;;;;;;;45.53;25.87;;;;;;;9.23;82.70;99575.06;5054572;28;20578;-54
2022/12/07 08:10:07;;;;;;;49.17;26.37;;;;;;;9.44;82.33;99597.78;5073857;28;20194;-54
2022/12/07 08:12:37;;;;;;;40.63;25.70;;;;;;;9.42;82.02;99574.66;5074315;28;20187;-54
2022/12/07 08:15:04;;;;;;;47.33;26.00;;;;;;;9.52;81.17;99569.72;5074022;28;20310;-55
2022/12/07 08:17:33;;;;;;;55.47;32.47;;;;;;;9.72;81.38;99597.56;5073731;28;20248;-55
2022/12/07 08:20:00;;;;;;;50.27;34.20;;;;;;;9.80;81.09;99603.72;5061023;28;20199;-55
2022/12/07 08:22:27;;;;;;;56.40;30.47;;;;;;;9.79;80.34;99601.09;5054368;28;20188;-54
2022/12/07 08:24:54;;;;;;;51.17;28.40;;;;;;;9.79;80.68;99594.28;5054004;28;20196;-54
2022/12/07 08:27:23;;;;;;;40.70;27.77;;;;;;;9.68;80.71;99598.31;5064493;28;20192;-54
2022/12/07 08:29:50;;;;;;;47.23;27.40;;;;;;;9.57;80.93;99586.06;5073331;28;20187;-54
2022/12/07 08:32:17;;;;;;;48.53;26.90;;;;;;;9.65;81.17;99584.53;5073649;28;20187;-54
2022/12/07 08:34:45;;;;;;;39.80;26.87;;;;;;;9.57;81.85;99594.66;5073268;28;20708;-55
2022/12/07 08:37:12;;;;;;;40.70;24.97;;;;;;;9.68;81.23;99600.00;5073491;28;20606;-54
2022/12/07 08:39:39;;;;;;;43.87;27.53;;;;;;;9.68;81.79;99594.88;5073429;28;20596;-55
2022/12/07 08:42:05;;;;;;;42.60;26.67;;;;;;;9.66;82.33;99588.84;5073887;28;20187;-54
2022/12/07 08:44:32;;;;;;;43.73;26.17;;;;;;;9.82;81.82;99586.63;5073694;28;20715;-55
2022/12/07 08:47:05;;;;;;;45.10;28.03;;;;;;;9.92;80.99;99585.97;5073350;28;20199;-55
2022/12/07 08:49:35;;;;;;;41.47;27.87;;;;;;;10.00;81.00;99581.00;5053387;28;20192;-54
2022/12/07 08:52:05;;;;;;;43.30;26.70;;;;;;;10.11;81.20;99564.09;5052245;28;20231;-55
2022/12/07 08:54:35;;;;;;;47.43;28.83;;;;;;;10.32;80.71;99571.38;5052402;28;20662;-55
2022/12/07 08:57:02;;;;;;;51.47;30.50;;;;;;;10.37;80.07;99577.47;5049489;28;20207;-54
2022/12/07 08:59:29;;;;;;;51.77;30.37;;;;;;;10.38;80.32;99576.63;5051498;28;20199;-55
2022/12/07 09:01:57;;;;;;;55.57;31.67;;;;;;;10.38;80.14;99551.78;5052081;28;20307;-55
2022/12/07 09:04:23;;;;;;;52.63;31.87;;;;;;;10.42;79.25;99558.72;5061491;28;20535;-55
2022/12/07 09:06:50;;;;;;;50.33;29.77;;;;;;;10.64;78.92;99555.69;5050719;28;20276;-55
2022/12/07 09:09:19;;;;;;;51.90;31.50;;;;;;;10.81;78.54;99555.97;5052115;28;20575;-55
2022/12/07 09:11:46;;;;;;;53.20;31.53;;;;;;;10.92;77.51;99553.56;5063812;28;20199;-55
2022/12/07 09:14:13;;;;;;;48.63;32.87;;;;;;;10.69;77.85;99542.91;5072607;28;20224;-54
2022/12/07 09:16:40;;;;;;;50.37;33.53;;;;;;;10.66;77.75;99533.44;5072543;28;20237;-54
2022/12/07 09:19:12;;;;;;;50.57;30.63;;;;;;;10.55;78.30;99537.53;5072559;28;20187;-54
2022/12/07 09:21:38;;;;;;;46.77;31.10;;;;;;;10.62;78.59;99533.38;5073392;28;20206;-54
2022/12/07 09:24:06;;;;;;;49.80;29.97;;;;;;;10.67;77.88;99526.63;5072473;28;20266;-54
2022/12/07 09:26:35;;;;;;;49.27;30.97;;;;;;;10.84;78.11;99519.16;5064146;28;20216;-53
2022/12/07 09:29:02;;;;;;;49.90;32.30;;;;;;;10.78;77.57;99519.06;5040881;28;20223;-55
2022/12/07 09:31:29;;;;;;;47.90;30.00;;;;;;;10.90;77.53;99524.41;5032393;28;20188;-55
2022/12/07 09:33:56;;;;;;;52.63;32.63;;;;;;;10.85;76.96;99515.78;5032721;28;20193;-55
2022/12/07 09:36:23;;;;;;;52.70;33.00;;;;;;;10.83;77.12;99513.16;5049029;28;20224;-55
2022/12/07 09:38:50;;;;;;;55.63;31.90;;;;;;;10.94;77.16;99501.34;5070177;28;20250;-54
2022/12/07 09:41:17;;;;;;;52.43;33.27;;;;;;;11.09;76.44;99508.41;5072049;28;20191;-55
2022/12/07 09:43:46;;;;;;;48.00;31.80;;;;;;;11.24;76.70;99495.75;5072096;28;20728;-55
2022/12/07 09:46:17;;;;;;;57.83;31.87;;;;;;;11.27;75.85;99499.25;5071881;28;20199;-55
2022/12/07 09:48:45;;;;;;;47.90;29.80;;;;;;;10.95;76.10;99490.22;5072808;28;20187;-55
2022/12/07 09:51:17;;;;;;;47.63;32.63;;;;;;;10.81;76.11;99462.59;5072251;28;20188;-55
2022/12/07 09:53:44;;;;;;;47.97;30.03;;;;;;;11.04;76.19;99486.94;5064013;28;20195;-55
2022/12/07 09:56:14;;;;;;;46.20;30.73;;;;;;;11.10;75.50;99484.41;5040433;28;20580;-55
2022/12/07 09:58:41;;;;;;;50.67;30.47;;;;;;;11.08;75.04;99488.69;5031850;28;20670;-55
2022/12/07 10:01:14;;;;;;;56.63;31.03;;;;;;;11.05;75.89;99489.50;5031894;28;20193;-55
2022/12/07 10:03:56;;;;;;;63.10;32.43;;;;;;;11.20;74.92;99484.59;5055165;28;20187;-56
2022/12/07 10:06:24;;;;;;;45.73;29.83;;;;;;;11.34;74.80;99471.91;5071787;28;20191;-55
2022/12/07 10:08:51;;;;;;;50.37;29.47;;;;;;;11.33;74.86;99477.00;5071510;28;20658;-55
2022/12/07 10:11:18;;;;;;;46.90;30.20;;;;;;;11.34;74.56;99477.06;5071582;28;20192;-55
2022/12/07 10:13:48;;;;;;;48.13;30.93;;;;;;;11.42;74.46;99480.59;5071872;28;20191;-55
2022/12/07 10:16:38;;;;;;;45.90;30.63;;;;;;;11.52;74.87;99476.41;5072008;28;20222;-55
2022/12/07 10:19:26;;;;;;;51.00;31.33;;;;;;;11.78;74.08;99472.47;5071820;28;20665;-55
2022/12/07 10:22:11;;;;;;;41.63;27.73;;;;;;;11.80;73.15;99471.63;5071829;28;20184;-54
2022/12/07 10:24:40;;;;;;;42.87;28.70;;;;;;;11.60;73.28;99462.78;5072216;28;20282;-54
2022/12/07 10:27:19;;;;;;;44.17;29.13;;;;;;;11.79;73.10;99456.16;5071669;28;20194;-54
2022/12/07 10:29:50;;;;;;;46.30;30.00;;;;;;;11.69;72.47;99450.06;5071845;28;20273;-55
2022/12/07 10:32:32;;;;;;;42.77;26.77;;;;;;;11.84;72.61;99449.34;5071620;28;20195;-55
2022/12/07 10:35:20;;;;;;;42.33;25.80;;;;;;;11.92;72.71;99442.56;5071558;28;20226;-55
2022/12/07 10:37:47;;;;;;;47.90;25.83;;;;;;;12.00;72.71;99435.78;5031898;28;20188;-55
2022/12/07 10:40:28;;;;;;;35.73;23.97;;;;;;;12.11;73.19;99443.63;5045618;28;20682;-55
2022/12/07 10:43:19;;;;;;;47.03;26.53;;;;;;;12.22;71.79;99439.44;5051844;28;20184;-54
2022/12/07 10:46:18;;;;;;;28.97;20.80;;;;;;;12.10;70.94;99450.47;5051224;28;20205;-55
2022/12/07 10:48:56;;;;;;;33.77;21.33;;;;;;;12.04;71.88;99455.56;5032182;28;20553;-55
2022/12/07 10:51:33;;;;;;;35.30;21.70;;;;;;;12.00;72.09;99447.81;5032052;28;20230;-56
2022/12/07 10:54:09;;;;;;;41.90;26.03;;;;;;;12.00;72.12;99451.25;5031605;28;20185;-56
2022/12/07 10:57:02;;;;;;;35.70;23.13;;;;;;;12.06;72.57;99445.28;5031073;28;20263;-53
2022/12/07 10:59:54;;;;;;;37.00;23.43;;;;;;;12.16;72.50;99441.94;5031772;28;20192;-54
2022/12/07 11:02:33;;;;;;;37.97;23.93;;;;;;;12.28;71.97;99432.59;5031357;28;20552;-55
2022/12/07 11:05:12;;;;;;;36.00;22.17;;;;;;;12.32;71.81;99436.06;5031418;28;20201;-54
2022/12/07 11:07:48;;;;;;;32.03;21.67;;;;;;;12.27;71.67;99433.47;5031119;28;20193;-55
2022/12/07 11:10:23;;;;;;;33.63;22.80;;;;;;;12.37;71.61;99422.38;5031443;28;20200;-54
2022/12/07 11:13:12;;;;;;;36.63;22.90;;;;;;;12.41;71.93;99425.84;5030971;28;20192;-55
2022/12/07 11:15:59;;;;;;;34.00;21.40;;;;;;;12.36;71.51;99417.22;5030456;28;20217;-56
2022/12/07 11:18:32;;;;;;;35.37;22.27;;;;;;;12.45;71.31;99422.41;5031462;28;20185;-56
2022/12/07 11:21:10;;;;;;;39.20;25.77;;;;;;;12.51;70.99;99419.91;5031175;28;20193;-56
2022/12/07 11:23:47;;;;;;;34.60;23.17;;;;;;;12.46;71.10;99406.13;5034130;28;20192;-55
2022/12/07 11:26:25;;;;;;;45.03;24.93;;;;;;;12.47;71.32;99410.41;5034836;28;20192;-56
2022/12/07 11:29:22;;;;;;;35.97;23.70;;;;;;;12.44;71.54;99403.50;5046006;28;20187;-56
2022/12/07 11:31:59;;;;;;;35.77;21.67;;;;;;;12.38;71.61;99403.50;5054976;28;20193;-55
2022/12/07 11:34:37;;;;;;;36.30;21.27;;;;;;;12.40;72.04;99398.34;5054792;28;20184;-55
2022/12/07 11:37:12;;;;;;;41.73;22.33;;;;;;;12.51;72.38;99394.13;5054489;28;20188;-55
2022/12/07 11:39:45;;;;;;;32.70;21.37;;;;;;;12.54;70.95;99399.31;5054541;28;20238;-55
2022/12/07 11:42:17;;;;;;;32.60;21.03;;;;;;;12.39;70.48;99363.09;5054756;28;20197;-56
2022/12/07 11:44:52;;;;;;;38.53;20.40;;;;;;;12.58;70.20;99392.47;5040942;28;20650;-55
2022/12/07 11:47:23;;;;;;;35.70;22.07;;;;;;;12.17;70.22;99320.88;5043335;28;20223;-55